createdAt,value
2023-01-17T00:01:59.286Z,3.33
2023-01-17T00:04:44.878Z,3.37
2023-01-17T00:07:31.348Z,3.38
2023-01-17T00:10:01.244Z,3.36
2023-01-17T00:12:30.249Z,3.38
2023-01-17T00:14:58.387Z,3.35
2023-01-17T00:17:27.466Z,3.35
2023-01-17T00:20:12.517Z,3.37
2023-01-17T00:22:57.970Z,3.32
2023-01-17T00:25:47.727Z,3.29
2023-01-17T00:28:14.940Z,3.27
2023-01-17T00:30:41.579Z,3.27
2023-01-17T00:33:08.232Z,3.29
2023-01-17T00:35:35.181Z,3.23
2023-01-17T00:38:03.889Z,3.22
2023-01-17T00:40:32.438Z,3.19
2023-01-17T00:43:17.999Z,3.16
2023-01-17T00:46:03.729Z,3.16
2023-01-17T00:48:49.394Z,3.13
2023-01-17T00:51:35.119Z,3.07
2023-01-17T00:54:20.279Z,3.05
2023-01-17T00:57:07.064Z,3.06
2023-01-17T00:59:52.523Z,3.04
2023-01-17T01:02:38.162Z,3.00
2023-01-17T01:05:24.010Z,3.00
2023-01-17T01:08:09.268Z,3.00
2023-01-17T01:10:54.576Z,3.02
2023-01-17T01:13:43.098Z,3.01
2023-01-17T01:16:28.334Z,2.99
2023-01-17T01:19:13.813Z,2.99
2023-01-17T01:21:59.323Z,3.01
2023-01-17T01:24:44.335Z,3.03
2023-01-17T01:27:29.727Z,3.02
2023-01-17T01:30:16.707Z,3.00
2023-01-17T01:33:01.975Z,3.01
2023-01-17T01:35:28.959Z,3.02
2023-01-17T01:37:55.611Z,3.03
2023-01-17T01:40:22.275Z,3.04
2023-01-17T01:42:50.812Z,3.08
2023-01-17T01:45:21.229Z,3.13
2023-01-17T01:47:49.514Z,3.13
2023-01-17T01:50:17.140Z,3.07
2023-01-17T01:52:46.652Z,3.00
2023-01-17T01:55:17.465Z,2.93
2023-01-17T01:57:49.529Z,2.84
2023-01-17T02:00:21.365Z,2.75
2023-01-17T02:02:49.797Z,2.66
2023-01-17T02:05:20.675Z,2.58
2023-01-17T02:07:52.287Z,2.54
2023-01-17T02:10:19.307Z,2.52
2023-01-17T02:12:46.861Z,2.51
2023-01-17T02:15:13.635Z,2.53
2023-01-17T02:17:55.486Z,2.55
2023-01-17T02:20:47.854Z,2.52
2023-01-17T02:23:55.238Z,2.51
2023-01-17T02:26:41.096Z,2.47
2023-01-17T02:29:30.415Z,2.44
2023-01-17T02:32:02.055Z,2.39
2023-01-17T02:34:35.248Z,2.37
2023-01-17T02:37:09.528Z,2.31
2023-01-17T02:39:41.533Z,2.23
2023-01-17T02:42:14.495Z,2.17
2023-01-17T02:44:42.528Z,2.10
2023-01-17T02:47:23.123Z,2.04
2023-01-17T02:49:51.135Z,2.03
2023-01-17T02:52:37.292Z,1.98
2023-01-17T02:55:14.716Z,1.91
2023-01-17T02:58:06.381Z,1.85
2023-01-17T03:00:40.483Z,1.80
2023-01-17T03:03:15.534Z,1.76
2023-01-17T03:05:48.633Z,1.70
2023-01-17T03:08:15.896Z,1.67
2023-01-17T03:10:44.415Z,1.65
2023-01-17T03:13:11.030Z,1.66
2023-01-17T03:15:39.381Z,1.65
2023-01-17T03:18:12.554Z,1.67
2023-01-17T03:20:39.170Z,1.69
2023-01-17T03:23:05.788Z,1.66
2023-01-17T03:25:32.415Z,1.65
2023-01-17T03:27:59.078Z,1.65
2023-01-17T03:30:25.968Z,1.65
2023-01-17T03:32:52.711Z,1.60
2023-01-17T03:35:20.789Z,1.51
2023-01-17T03:37:47.385Z,1.50
2023-01-17T03:40:14.211Z,1.50
2023-01-17T03:42:40.917Z,1.51
2023-01-17T03:45:08.604Z,1.48
2023-01-17T03:47:35.948Z,1.45
2023-01-17T03:50:02.997Z,1.36
2023-01-17T03:52:30.925Z,1.20
2023-01-17T03:54:57.584Z,1.06
2023-01-17T03:57:24.195Z,0.97
2023-01-17T03:59:50.876Z,0.92
2023-01-17T04:02:17.963Z,0.91
2023-01-17T04:04:44.533Z,0.85
2023-01-17T04:07:11.165Z,0.87
2023-01-17T04:09:39.100Z,0.90
2023-01-17T04:12:06.066Z,0.88
2023-01-17T04:14:32.928Z,0.82
2023-01-17T04:17:00.039Z,0.74
2023-01-17T04:19:27.118Z,0.62
2023-01-17T04:21:53.677Z,0.50
2023-01-17T04:24:20.266Z,0.44
2023-01-17T04:26:48.219Z,0.38
2023-01-17T04:29:14.821Z,0.31
2023-01-17T04:31:41.435Z,0.31
2023-01-17T04:34:08.077Z,0.36
2023-01-17T04:36:34.726Z,0.37
2023-01-17T04:39:01.330Z,0.39
2023-01-17T04:41:28.035Z,0.39
2023-01-17T04:43:56.311Z,0.40
2023-01-17T04:46:23.089Z,0.34
2023-01-17T04:48:49.698Z,0.24
2023-01-17T04:51:16.335Z,0.15
2023-01-17T04:53:42.972Z,0.08
2023-01-17T04:56:09.573Z,0.03
2023-01-17T04:58:36.242Z,0.04
2023-01-17T05:01:04.980Z,0.04
2023-01-17T05:03:32.305Z,0.06
2023-01-17T05:05:59.160Z,0.07
2023-01-17T05:08:25.823Z,0.10
2023-01-17T05:10:52.621Z,0.16
2023-01-17T05:13:19.265Z,0.18
2023-01-17T05:15:46.629Z,0.14
2023-01-17T05:18:15.897Z,0.07
2023-01-17T05:20:43.110Z,-0.03
2023-01-17T05:23:10.516Z,-0.13
2023-01-17T05:25:38.154Z,-0.19
2023-01-17T05:28:05.164Z,-0.20
2023-01-17T05:30:32.822Z,-0.20
2023-01-17T05:32:59.453Z,-0.22
2023-01-17T05:35:29.214Z,-0.24
2023-01-17T05:37:56.757Z,-0.28
2023-01-17T05:40:25.631Z,-0.29
2023-01-17T05:42:53.696Z,-0.29
2023-01-17T05:45:23.065Z,-0.30
2023-01-17T05:47:51.910Z,-0.28
2023-01-17T05:50:21.739Z,-0.26
2023-01-17T05:52:54.694Z,-0.29
2023-01-17T05:55:22.468Z,-0.34
2023-01-17T05:57:49.350Z,-0.39
2023-01-17T06:00:17.417Z,-0.44
2023-01-17T06:02:44.327Z,-0.49
2023-01-17T06:05:11.658Z,-0.51
2023-01-17T06:07:38.588Z,-0.50
2023-01-17T06:10:07.452Z,-0.50
2023-01-17T06:12:34.062Z,-0.54
2023-01-17T06:15:00.657Z,-0.65
2023-01-17T06:17:27.316Z,-0.79
2023-01-17T06:19:53.907Z,-0.86
2023-01-17T06:22:20.488Z,-0.94
2023-01-17T06:24:47.116Z,-0.96
2023-01-17T06:27:15.037Z,-0.95
2023-01-17T06:29:41.654Z,-0.93
2023-01-17T06:32:08.304Z,-0.92
2023-01-17T06:34:34.950Z,-0.95
2023-01-17T06:37:01.525Z,-0.99
2023-01-17T06:39:28.098Z,-1.04
2023-01-17T06:41:54.823Z,-1.06
2023-01-17T06:44:22.863Z,-1.04
2023-01-17T06:46:49.518Z,-1.01
2023-01-17T06:49:16.122Z,-0.92
2023-01-17T06:51:43.734Z,-0.86
2023-01-17T06:54:10.533Z,-0.88
2023-01-17T06:56:37.689Z,-0.89
2023-01-17T06:59:05.072Z,-0.91
2023-01-17T07:01:33.232Z,-0.98
2023-01-17T07:04:00.129Z,-1.08
2023-01-17T07:06:28.800Z,-1.20
2023-01-17T07:08:56.337Z,-1.30
2023-01-17T07:11:23.416Z,-1.36
2023-01-17T07:13:50.046Z,-1.41
2023-01-17T07:16:16.756Z,-1.39
2023-01-17T07:18:44.728Z,-1.37
2023-01-17T07:21:13.279Z,-1.33
2023-01-17T07:23:40.199Z,-1.29
2023-01-17T07:26:07.090Z,-1.25
2023-01-17T07:28:34.045Z,-1.21
2023-01-17T07:31:04.895Z,-1.21
2023-01-17T07:33:31.485Z,-1.21
2023-01-17T07:35:59.548Z,-1.19
2023-01-17T07:38:26.307Z,-1.16
2023-01-17T07:40:52.969Z,-1.12
2023-01-17T07:43:19.584Z,-1.03
2023-01-17T07:45:52.186Z,-0.93
2023-01-17T07:48:20.904Z,-0.85
2023-01-17T07:50:52.294Z,-0.76
2023-01-17T07:53:20.459Z,-0.67
2023-01-17T07:55:47.157Z,-0.62
2023-01-17T07:58:14.990Z,-0.56
2023-01-17T08:00:43.976Z,-0.51
2023-01-17T08:03:13.663Z,-0.46
2023-01-17T08:05:40.873Z,-0.39
2023-01-17T08:08:08.065Z,-0.31
2023-01-17T08:10:36.206Z,-0.25
2023-01-17T08:13:02.872Z,-0.22
2023-01-17T08:15:29.703Z,-0.17
2023-01-17T08:17:57.682Z,-0.17
2023-01-17T08:20:27.562Z,-0.16
2023-01-17T08:22:55.447Z,-0.14
2023-01-17T08:25:23.511Z,-0.12
2023-01-17T08:27:56.124Z,-0.09
2023-01-17T08:30:22.759Z,-0.04
2023-01-17T08:32:49.400Z,0.06
2023-01-17T08:35:16.123Z,0.22
2023-01-17T08:37:42.828Z,0.40
2023-01-17T08:40:11.165Z,0.56
2023-01-17T08:42:40.091Z,0.72
2023-01-17T08:45:09.434Z,0.87
2023-01-17T08:47:36.613Z,1.01
2023-01-17T08:50:04.272Z,1.15
2023-01-17T08:52:31.092Z,1.22
2023-01-17T08:54:57.784Z,1.31
2023-01-17T08:57:25.062Z,1.42
2023-01-17T08:59:51.696Z,1.49
2023-01-17T09:02:20.134Z,1.56
2023-01-17T09:04:47.757Z,1.62
2023-01-17T09:07:14.613Z,1.71
2023-01-17T09:09:41.253Z,1.80
2023-01-17T09:12:07.962Z,1.87
2023-01-17T09:14:34.669Z,1.94
2023-01-17T09:17:01.652Z,2.04
2023-01-17T09:19:29.632Z,2.16
2023-01-17T09:21:56.248Z,2.28
2023-01-17T09:24:22.926Z,2.40
2023-01-17T09:26:49.644Z,2.71
2023-01-17T09:29:18.203Z,3.10
2023-01-17T09:31:47.205Z,3.32
2023-01-17T09:34:15.594Z,3.44
2023-01-17T09:36:43.654Z,3.56
2023-01-17T09:39:11.281Z,3.70
2023-01-17T09:41:48.134Z,3.88
2023-01-17T09:44:25.019Z,4.09
2023-01-17T09:46:54.415Z,4.30
2023-01-17T09:49:32.709Z,4.49
2023-01-17T09:52:02.271Z,4.58
2023-01-17T09:54:34.254Z,4.69
2023-01-17T09:57:08.958Z,4.88
2023-01-17T09:59:46.083Z,5.21
2023-01-17T10:02:36.332Z,5.55
2023-01-17T10:05:28.239Z,5.94
2023-01-17T10:08:10.041Z,6.21
2023-01-17T10:10:41.946Z,6.42
2023-01-17T10:13:25.829Z,6.62
2023-01-17T10:16:15.406Z,6.76
2023-01-17T10:19:00.254Z,6.68
2023-01-17T10:21:39.125Z,6.52
2023-01-17T10:24:24.637Z,6.28
2023-01-17T10:26:54.416Z,6.07
2023-01-17T10:29:22.838Z,5.87
2023-01-17T10:31:54.348Z,5.67
2023-01-17T10:34:28.290Z,5.45
2023-01-17T10:37:01.953Z,5.31
2023-01-17T10:39:31.105Z,5.17
2023-01-17T10:42:01.923Z,5.06
2023-01-17T10:44:35.340Z,5.01
2023-01-17T10:47:10.489Z,4.98
2023-01-17T10:49:38.899Z,4.92
2023-01-17T10:52:23.503Z,4.90
2023-01-17T10:54:59.054Z,4.83
2023-01-17T10:57:27.887Z,4.76
2023-01-17T10:59:59.942Z,4.73
2023-01-17T11:02:30.464Z,4.74
2023-01-17T11:05:02.560Z,4.72
2023-01-17T11:07:29.707Z,4.72
2023-01-17T11:09:59.034Z,4.76
2023-01-17T11:12:29.620Z,4.77
2023-01-17T11:15:01.677Z,4.79
2023-01-17T11:17:29.403Z,4.79
2023-01-17T11:20:08.373Z,4.79
2023-01-17T11:22:35.359Z,4.72
2023-01-17T11:25:04.604Z,4.70
2023-01-17T11:27:33.932Z,4.72
2023-01-17T11:30:15.969Z,4.71
2023-01-17T11:32:53.058Z,4.66
2023-01-17T11:35:22.509Z,4.62
2023-01-17T11:37:51.527Z,4.55
2023-01-17T11:40:27.338Z,4.52
2023-01-17T11:43:04.928Z,4.51
2023-01-17T11:45:33.103Z,4.46
2023-01-17T11:48:15.940Z,4.44
2023-01-17T11:50:46.354Z,4.43
2023-01-17T11:53:23.594Z,4.47
2023-01-17T11:56:03.319Z,4.49
2023-01-17T11:58:32.380Z,4.47
2023-01-17T12:01:06.693Z,4.46
2023-01-17T12:03:52.500Z,4.48
2023-01-17T12:06:29.443Z,4.50
2023-01-17T12:09:08.850Z,4.53
2023-01-17T12:12:08.782Z,4.54
2023-01-17T12:14:46.649Z,4.56
2023-01-17T12:17:29.375Z,4.59
2023-01-17T12:20:01.312Z,4.58
2023-01-17T12:22:41.979Z,4.58
2023-01-17T12:25:47.782Z,4.57
2023-01-17T12:28:33.199Z,4.58
2023-01-17T12:31:12.468Z,4.57
2023-01-17T12:33:47.385Z,4.56
2023-01-17T12:36:27.978Z,4.56
2023-01-17T12:38:56.697Z,4.52
2023-01-17T12:41:26.545Z,4.50
2023-01-17T12:43:59.167Z,4.52
2023-01-17T12:46:30.308Z,4.53
2023-01-17T12:49:03.987Z,4.54
2023-01-17T12:51:36.806Z,4.54
2023-01-17T12:54:13.246Z,4.53
2023-01-17T12:56:45.737Z,4.50
2023-01-17T12:59:18.952Z,4.50
2023-01-17T13:01:57.210Z,4.49
2023-01-17T13:04:28.299Z,4.47
2023-01-17T13:07:05.259Z,4.50
2023-01-17T13:09:39.513Z,4.54
2023-01-17T13:12:11.065Z,4.59
2023-01-17T13:14:39.154Z,4.64
2023-01-17T13:17:24.117Z,4.65
2023-01-17T13:19:57.673Z,4.66
2023-01-17T13:22:27.207Z,4.66
2023-01-17T13:25:00.641Z,4.61
2023-01-17T13:27:46.628Z,4.60
2023-01-17T13:30:31.355Z,4.62
2023-01-17T13:33:16.168Z,4.64
2023-01-17T13:35:55.063Z,4.69
2023-01-17T13:38:34.489Z,4.72
2023-01-17T13:41:12.056Z,4.76
2023-01-17T13:44:02.058Z,4.80
2023-01-17T13:46:31.511Z,4.80
2023-01-17T13:49:37.251Z,4.83
2023-01-17T13:52:09.573Z,4.87
2023-01-17T13:54:45.005Z,4.86
2023-01-17T13:57:36.057Z,4.82
2023-01-17T14:00:58.210Z,4.76
2023-01-17T14:04:05.239Z,4.65
2023-01-17T14:06:38.582Z,4.57
2023-01-17T14:09:13.133Z,4.49
2023-01-17T14:11:52.296Z,4.47
2023-01-17T14:14:50.428Z,4.46
2023-01-17T14:17:57.052Z,4.47
2023-01-17T14:20:51.048Z,4.47
2023-01-17T14:23:52.164Z,4.44
2023-01-17T14:26:36.820Z,4.40
2023-01-17T14:29:41.208Z,4.39
2023-01-17T14:32:11.882Z,4.32
2023-01-17T14:34:38.716Z,4.30
2023-01-17T14:37:15.897Z,4.32
2023-01-17T14:39:48.928Z,4.38
2023-01-17T14:42:18.419Z,4.40
2023-01-17T14:44:46.991Z,4.40
2023-01-17T14:47:15.403Z,4.42
2023-01-17T14:49:42.206Z,4.43
2023-01-17T14:52:15.905Z,4.45
2023-01-17T14:54:53.314Z,4.44
2023-01-17T14:57:26.736Z,4.43
2023-01-17T15:00:09.478Z,4.40
2023-01-17T15:02:40.021Z,4.36
2023-01-17T15:05:10.013Z,4.35
2023-01-17T15:07:37.182Z,4.35
2023-01-17T15:10:07.424Z,4.33
2023-01-17T15:12:36.739Z,4.31
2023-01-17T15:15:03.782Z,4.28
2023-01-17T15:17:30.673Z,4.24
2023-01-17T15:20:01.576Z,4.22
2023-01-17T15:22:29.846Z,4.15
2023-01-17T15:24:58.697Z,4.13
2023-01-17T15:27:27.232Z,4.13
2023-01-17T15:29:57.488Z,4.12
2023-01-17T15:32:31.270Z,4.09
2023-01-17T15:34:59.354Z,4.08
2023-01-17T15:37:30.108Z,4.05
2023-01-17T15:40:06.583Z,4.01
2023-01-17T15:42:38.688Z,3.95
2023-01-17T15:45:12.878Z,3.90
2023-01-17T15:47:39.603Z,3.83
2023-01-17T15:50:27.721Z,3.79
2023-01-17T15:52:57.567Z,3.78
2023-01-17T15:55:29.569Z,3.79
2023-01-17T15:57:57.677Z,3.82
2023-01-17T16:00:32.436Z,3.85
2023-01-17T16:02:59.830Z,3.85
2023-01-17T16:05:41.944Z,3.85
2023-01-17T16:08:25.164Z,3.87
2023-01-17T16:10:54.828Z,3.86
2023-01-17T16:13:22.908Z,3.85
2023-01-17T16:15:49.732Z,3.83
2023-01-17T16:18:19.293Z,3.84
2023-01-17T16:20:48.493Z,3.84
2023-01-17T16:23:15.987Z,3.81
2023-01-17T16:25:44.373Z,3.81
2023-01-17T16:28:11.315Z,3.79
2023-01-17T16:30:39.288Z,3.79
2023-01-17T16:33:06.028Z,3.80
2023-01-17T16:35:34.195Z,3.79
2023-01-17T16:38:03.540Z,3.81
2023-01-17T16:40:32.127Z,3.80
2023-01-17T16:43:00.389Z,3.81
2023-01-17T16:45:27.824Z,3.84
2023-01-17T16:47:56.118Z,3.87
2023-01-17T16:50:25.057Z,3.88
2023-01-17T16:52:53.699Z,3.88
2023-01-17T16:55:22.498Z,3.85
2023-01-17T16:57:49.898Z,3.87
2023-01-17T17:00:17.494Z,3.88
2023-01-17T17:02:44.533Z,3.88
2023-01-17T17:05:12.638Z,3.90
2023-01-17T17:07:50.779Z,3.90
2023-01-17T17:10:20.118Z,3.87
2023-01-17T17:12:47.196Z,3.82
2023-01-17T17:15:14.299Z,3.81
2023-01-17T17:17:43.271Z,3.83
2023-01-17T17:20:13.544Z,3.84
2023-01-17T17:22:40.225Z,3.84
2023-01-17T17:25:07.339Z,3.81
2023-01-17T17:27:34.195Z,3.73
2023-01-17T17:30:00.915Z,3.64
2023-01-17T17:32:28.220Z,3.55
2023-01-17T17:34:54.850Z,3.49
2023-01-17T17:37:23.612Z,3.47
2023-01-17T17:39:50.260Z,3.47
2023-01-17T17:42:16.889Z,3.49
2023-01-17T17:44:43.663Z,3.53
2023-01-17T17:47:12.983Z,3.52
2023-01-17T17:49:39.764Z,3.48
2023-01-17T17:52:07.344Z,3.50
2023-01-17T17:54:35.996Z,3.51
2023-01-17T17:57:02.892Z,3.54
2023-01-17T17:59:30.051Z,3.56
2023-01-17T18:01:57.166Z,3.55
2023-01-17T18:04:23.892Z,3.50
2023-01-17T18:06:50.512Z,3.43
2023-01-17T18:09:17.416Z,3.42
2023-01-17T18:11:45.389Z,3.41
2023-01-17T18:14:14.477Z,3.39
2023-01-17T18:16:43.256Z,3.38
2023-01-17T18:19:14.103Z,3.36
2023-01-17T18:21:41.105Z,3.38
2023-01-17T18:24:10.218Z,3.42
2023-01-17T18:26:38.251Z,3.43
2023-01-17T18:29:09.907Z,3.46
2023-01-17T18:31:37.291Z,3.47
2023-01-17T18:34:06.459Z,3.45
2023-01-17T18:36:34.852Z,3.45
2023-01-17T18:39:02.638Z,3.47
2023-01-17T18:41:31.331Z,3.50
2023-01-17T18:43:59.475Z,3.52
2023-01-17T18:46:27.911Z,3.55
2023-01-17T18:48:56.368Z,3.56
2023-01-17T18:51:24.443Z,3.56
2023-01-17T18:53:53.530Z,3.57
2023-01-17T18:56:22.145Z,3.57
2023-01-17T18:58:50.603Z,3.57
2023-01-17T19:01:19.988Z,3.56
2023-01-17T19:03:50.158Z,3.58
2023-01-17T19:06:19.212Z,3.54
2023-01-17T19:08:45.933Z,3.54
2023-01-17T19:11:13.034Z,3.53
2023-01-17T19:13:41.721Z,3.54
2023-01-17T19:16:14.059Z,3.52
2023-01-17T19:18:41.388Z,3.50
2023-01-17T19:21:11.187Z,3.47
2023-01-17T19:23:38.892Z,3.47
2023-01-17T19:26:08.851Z,3.48
2023-01-17T19:28:37.904Z,3.49
2023-01-17T19:31:06.271Z,3.46
2023-01-17T19:33:35.177Z,3.47
2023-01-17T19:36:04.349Z,3.47
2023-01-17T19:38:34.672Z,3.49
2023-01-17T19:41:08.421Z,3.51
2023-01-17T19:43:35.233Z,3.51
2023-01-17T19:46:02.979Z,3.51
2023-01-17T19:48:33.681Z,3.52
2023-01-17T19:51:06.367Z,3.53
2023-01-17T19:53:38.518Z,3.54
2023-01-17T19:56:08.454Z,3.53
2023-01-17T19:58:36.171Z,3.51
2023-01-17T20:01:09.069Z,3.53
2023-01-17T20:03:37.703Z,3.51
2023-01-17T20:06:05.336Z,3.50
2023-01-17T20:08:33.784Z,3.50
2023-01-17T20:11:04.263Z,3.47
2023-01-17T20:13:31.313Z,3.47
2023-01-17T20:16:02.606Z,3.49
2023-01-17T20:18:29.913Z,3.49
2023-01-17T20:21:02.759Z,3.49
2023-01-17T20:23:32.401Z,3.42
2023-01-17T20:26:00.450Z,3.37
2023-01-17T20:28:30.816Z,3.32
2023-01-17T20:31:03.857Z,3.27
2023-01-17T20:33:30.939Z,3.26
2023-01-17T20:36:09.515Z,3.26
2023-01-17T20:38:44.760Z,3.26
2023-01-17T20:41:13.336Z,3.26
2023-01-17T20:43:42.190Z,3.26
2023-01-17T20:46:10.157Z,3.27
2023-01-17T20:48:39.335Z,3.28
2023-01-17T20:51:10.706Z,3.28
2023-01-17T20:53:38.772Z,3.27
2023-01-17T20:56:07.890Z,3.23
2023-01-17T20:58:35.255Z,3.18
2023-01-17T21:01:03.592Z,3.10
2023-01-17T21:03:31.592Z,3.03
2023-01-17T21:05:59.981Z,2.96
2023-01-17T21:08:26.658Z,2.91
2023-01-17T21:10:53.769Z,2.83
2023-01-17T21:13:21.018Z,2.79
2023-01-17T21:15:49.688Z,2.77
2023-01-17T21:18:19.677Z,2.75
2023-01-17T21:20:46.701Z,2.74
2023-01-17T21:23:20.213Z,2.76
2023-01-17T21:25:57.178Z,2.76
2023-01-17T21:28:25.953Z,2.73
2023-01-17T21:30:54.193Z,2.69
2023-01-17T21:33:24.203Z,2.63
2023-01-17T21:35:51.387Z,2.56
2023-01-17T21:38:18.563Z,2.51
2023-01-17T21:40:45.885Z,2.49
2023-01-17T21:43:13.659Z,2.53
2023-01-17T21:45:42.009Z,2.54
2023-01-17T21:48:14.835Z,2.55
2023-01-17T21:50:43.032Z,2.55
2023-01-17T21:53:10.274Z,2.56
2023-01-17T21:55:55.538Z,2.58
2023-01-17T21:58:41.519Z,2.57
2023-01-17T22:01:15.688Z,2.58
2023-01-17T22:03:42.774Z,2.58
2023-01-17T22:06:10.784Z,2.59
2023-01-17T22:08:37.914Z,2.59
2023-01-17T22:11:07.313Z,2.59
2023-01-17T22:13:35.496Z,2.60
2023-01-17T22:16:05.348Z,2.62
2023-01-17T22:18:36.221Z,2.63
2023-01-17T22:21:08.165Z,2.63
2023-01-17T22:23:38.410Z,2.66
2023-01-17T22:26:07.478Z,2.65
2023-01-17T22:28:34.855Z,2.61
2023-01-17T22:31:09.635Z,2.56
2023-01-17T22:33:38.298Z,2.52
2023-01-17T22:36:06.993Z,2.52
2023-01-17T22:38:36.427Z,2.51
2023-01-17T22:41:08.021Z,2.50
2023-01-17T22:43:37.854Z,2.51
2023-01-17T22:46:05.270Z,2.51
2023-01-17T22:48:32.760Z,2.47
2023-01-17T22:51:02.436Z,2.46
2023-01-17T22:53:29.931Z,2.42
2023-01-17T22:56:05.055Z,2.39
2023-01-17T22:58:34.223Z,2.37
2023-01-17T23:01:05.597Z,2.38
2023-01-17T23:03:32.491Z,2.38
2023-01-17T23:06:08.723Z,2.42
2023-01-17T23:08:35.770Z,2.37
2023-01-17T23:11:33.824Z,2.37
2023-01-17T23:14:01.645Z,2.36
2023-01-17T23:16:47.855Z,2.34
2023-01-17T23:19:24.439Z,2.34
2023-01-17T23:22:11.460Z,2.33
2023-01-17T23:24:43.360Z,2.34
2023-01-17T23:27:33.080Z,2.33
2023-01-17T23:30:00.179Z,2.31
2023-01-17T23:32:27.726Z,2.25
2023-01-17T23:34:54.712Z,2.14
2023-01-17T23:37:21.273Z,2.04
2023-01-17T23:39:47.887Z,1.93
2023-01-17T23:42:34.608Z,1.86
2023-01-17T23:45:01.645Z,1.80
2023-01-17T23:47:28.223Z,1.78
2023-01-17T23:49:54.838Z,1.77
2023-01-17T23:52:21.627Z,1.75
2023-01-17T23:54:48.492Z,1.77
2023-01-17T23:57:16.773Z,1.73
2023-01-17T23:59:43.467Z,1.73
